createdAt,value
2018-12-29T00:00:20.872Z,6.13
2018-12-29T00:01:30.821Z,6.22
2018-12-29T00:02:40.772Z,6.28
2018-12-29T00:03:50.448Z,6.25
2018-12-29T00:05:00.393Z,6.2
2018-12-29T00:06:10.082Z,6.2
2018-12-29T00:07:19.770Z,6.26
2018-12-29T00:08:29.719Z,6.16
2018-12-29T00:09:39.674Z,6.28
2018-12-29T00:10:49.623Z,6.19
2018-12-29T00:11:59.574Z,6.19
2018-12-29T00:13:09.511Z,6.17
2018-12-29T00:14:19.220Z,6.2
2018-12-29T00:15:28.912Z,6.13
2018-12-29T00:16:38.360Z,6.13
2018-12-29T00:17:48.304Z,6.25
2018-12-29T00:18:58.000Z,6.19
2018-12-29T00:20:07.197Z,6.13
2018-12-29T00:21:17.139Z,6.19
2018-12-29T00:22:26.827Z,6.13
2018-12-29T00:23:36.763Z,6.13
2018-12-29T00:24:46.701Z,6.1
2018-12-29T00:25:56.409Z,6.2
2018-12-29T00:27:06.351Z,6.16
2018-12-29T00:28:16.037Z,6.15
2018-12-29T00:29:25.974Z,6.1
2018-12-29T00:30:35.674Z,6.16
2018-12-29T00:31:45.620Z,6.16
2018-12-29T00:32:55.561Z,6.19
2018-12-29T00:34:05.505Z,6.09
2018-12-29T00:35:15.193Z,6.13
2018-12-29T00:36:25.141Z,6.2
2018-12-29T00:37:34.854Z,6.19
2018-12-29T00:38:44.549Z,6.19
2018-12-29T00:39:54.230Z,6.13
2018-12-29T00:41:04.177Z,6.13
2018-12-29T00:42:14.124Z,6.16
2018-12-29T00:43:24.075Z,6.09
2018-12-29T00:44:34.021Z,6.12
2018-12-29T00:45:43.719Z,6.19
2018-12-29T00:46:53.655Z,6.13
2018-12-29T00:48:03.362Z,6.15
2018-12-29T00:49:13.293Z,6.13
2018-12-29T00:50:23.228Z,6.13
2018-12-29T00:51:33.178Z,6.12
2018-12-29T00:52:42.619Z,6.17
2018-12-29T00:53:52.579Z,6.17
2018-12-29T00:55:02.632Z,6.17
2018-12-29T00:56:12.566Z,6.13
2018-12-29T00:57:22.267Z,6.15
2018-12-29T00:58:32.207Z,6.13
2018-12-29T00:59:41.886Z,6.12
2018-12-29T01:00:51.573Z,6.16
2018-12-29T01:02:01.510Z,6.15
2018-12-29T01:03:11.446Z,6.17
2018-12-29T01:04:21.114Z,6.12
2018-12-29T01:05:31.055Z,6.16
2018-12-29T01:06:40.986Z,6.13
2018-12-29T01:07:50.931Z,6.16
2018-12-29T01:09:00.879Z,6.15
2018-12-29T01:10:10.820Z,6.16
2018-12-29T01:11:20.260Z,6.13
2018-12-29T01:12:30.274Z,6.13
2018-12-29T01:13:39.965Z,6.16
2018-12-29T01:14:49.650Z,6.1
2018-12-29T01:15:59.341Z,6.15
2018-12-29T01:17:09.277Z,6.1
2018-12-29T01:18:19.209Z,6.16
2018-12-29T01:19:29.143Z,6.13
2018-12-29T01:20:39.084Z,6.16
2018-12-29T01:21:49.006Z,6.15
2018-12-29T01:22:58.963Z,6.15
2018-12-29T01:24:08.903Z,6.15
2018-12-29T01:25:18.595Z,6.13
2018-12-29T01:26:28.298Z,6.12
2018-12-29T01:27:37.983Z,6.16
2018-12-29T01:28:47.934Z,6.16
2018-12-29T01:29:57.616Z,6.12
2018-12-29T01:31:07.046Z,6.12
2018-12-29T01:32:16.984Z,6.12
2018-12-29T01:33:26.670Z,6.13
2018-12-29T01:34:36.612Z,6.13
2018-12-29T01:35:46.300Z,6.17
2018-12-29T01:36:56.258Z,6.13
2018-12-29T01:38:05.949Z,6.15
2018-12-29T01:39:15.889Z,6.15
2018-12-29T01:40:25.340Z,6.17
2018-12-29T01:41:35.276Z,6.13
2018-12-29T01:42:44.964Z,6.17
2018-12-29T01:43:54.920Z,6.16
2018-12-29T01:45:04.615Z,6.17
2018-12-29T01:46:14.548Z,6.13
2018-12-29T01:47:23.985Z,6.07
2018-12-29T01:48:33.932Z,6.16
2018-12-29T01:49:43.872Z,6.2
2018-12-29T01:50:53.556Z,6.16
2018-12-29T01:52:03.244Z,6.17
2018-12-29T01:53:13.182Z,6.16
2018-12-29T01:54:22.862Z,6.15
2018-12-29T01:55:32.554Z,6.16
2018-12-29T01:56:42.263Z,6.13
2018-12-29T01:57:52.197Z,6.17
2018-12-29T01:59:01.899Z,6.13
2018-12-29T02:00:11.846Z,6.15
2018-12-29T02:01:21.551Z,6.12
2018-12-29T02:02:31.494Z,6.16
2018-12-29T02:03:41.428Z,6.17
2018-12-29T02:04:51.105Z,6.15
2018-12-29T02:06:01.045Z,6.25
2018-12-29T02:07:11.032Z,6.13
2018-12-29T02:08:20.973Z,6.15
2018-12-29T02:09:30.431Z,6.2
2018-12-29T02:10:40.145Z,6.09
2018-12-29T02:11:49.825Z,6.05
2018-12-29T02:12:59.797Z,6.12
2018-12-29T02:14:09.744Z,6.07
2018-12-29T02:15:27.007Z,6.1
2018-12-29T02:16:36.699Z,6.07
2018-12-29T02:17:46.201Z,6.19
2018-12-29T02:18:55.641Z,6.15
2018-12-29T02:20:05.586Z,6.15
2018-12-29T02:21:15.507Z,6.1
2018-12-29T02:22:25.441Z,6.02
2018-12-29T02:23:35.146Z,6.07
2018-12-29T02:24:45.078Z,6.1
2018-12-29T02:25:54.759Z,6.07
2018-12-29T02:27:04.452Z,6.12
2018-12-29T02:28:14.392Z,6.12
2018-12-29T02:29:24.151Z,6.13
2018-12-29T02:30:34.112Z,6.1
2018-12-29T02:31:44.095Z,6.12
2018-12-29T02:32:54.056Z,6.1
2018-12-29T02:34:04.001Z,6.13
2018-12-29T02:35:13.703Z,6.1
2018-12-29T02:36:23.668Z,6.07
2018-12-29T02:37:33.609Z,6.06
2018-12-29T02:38:43.311Z,6.13
2018-12-29T02:39:53.255Z,6.09
2018-12-29T02:41:03.182Z,5.98
2018-12-29T02:42:13.167Z,6.12
2018-12-29T02:43:23.106Z,6.07
2018-12-29T02:44:32.807Z,6.06
2018-12-29T02:45:42.498Z,6.06
2018-12-29T02:46:52.463Z,6.1
2018-12-29T02:48:02.174Z,6.05
2018-12-29T02:49:11.873Z,6.01
2018-12-29T02:50:21.818Z,6.01
2018-12-29T02:51:31.509Z,6.09
2018-12-29T02:52:41.471Z,6.05
2018-12-29T02:53:51.412Z,5.98
2018-12-29T02:55:00.856Z,6.06
2018-12-29T02:56:10.809Z,6.06
2018-12-29T02:57:20.746Z,5.98
2018-12-29T02:58:30.209Z,5.98
2018-12-29T02:59:40.148Z,6.05
2018-12-29T03:00:50.099Z,6.05
2018-12-29T03:01:59.812Z,6.01
2018-12-29T03:03:09.757Z,5.98
2018-12-29T03:04:19.442Z,5.97
2018-12-29T03:05:29.360Z,5.99
2018-12-29T03:06:39.305Z,6.05
2018-12-29T03:07:49.000Z,5.95
2018-12-29T03:08:58.946Z,5.95
2018-12-29T03:10:08.648Z,5.99
2018-12-29T03:11:18.348Z,5.99
2018-12-29T03:12:27.824Z,6.01
2018-12-29T03:13:37.777Z,5.98
2018-12-29T03:14:47.529Z,6.01
2018-12-29T03:15:57.464Z,5.99
2018-12-29T03:17:07.180Z,5.98
2018-12-29T03:18:16.868Z,6.06
2018-12-29T03:19:26.851Z,6.05
2018-12-29T03:20:36.804Z,5.98
2018-12-29T03:21:46.499Z,5.9
2018-12-29T03:22:56.442Z,6.02
2018-12-29T03:24:06.391Z,5.97
2018-12-29T03:25:16.344Z,6.01
2018-12-29T03:26:26.040Z,5.94
2018-12-29T03:27:35.732Z,5.92
2018-12-29T03:28:45.678Z,5.99
2018-12-29T03:29:55.618Z,5.98
2018-12-29T03:31:05.620Z,5.94
2018-12-29T03:32:15.584Z,5.95
2018-12-29T03:33:25.317Z,5.99
2018-12-29T03:34:34.771Z,6.01
2018-12-29T03:35:44.730Z,5.95
2018-12-29T03:36:54.430Z,5.9
2018-12-29T03:38:04.113Z,5.94
2018-12-29T03:39:14.051Z,5.97
2018-12-29T03:40:23.978Z,6.01
2018-12-29T03:41:33.766Z,5.92
2018-12-29T03:42:43.454Z,6.01
2018-12-29T03:43:53.403Z,5.99
2018-12-29T03:45:03.359Z,6.06
2018-12-29T03:46:13.052Z,5.94
2018-12-29T03:47:22.997Z,6.01
2018-12-29T03:48:32.933Z,5.98
2018-12-29T03:49:42.871Z,5.98
2018-12-29T03:50:52.800Z,5.87
2018-12-29T03:52:02.506Z,5.99
2018-12-29T03:53:12.460Z,5.87
2018-12-29T03:54:22.396Z,5.97
2018-12-29T03:55:32.324Z,5.95
2018-12-29T03:56:42.265Z,5.92
2018-12-29T03:57:51.958Z,5.95
2018-12-29T03:59:01.899Z,5.95
2018-12-29T04:00:11.865Z,6.01
2018-12-29T04:01:21.805Z,6.01
2018-12-29T04:02:31.502Z,6.01
2018-12-29T04:03:41.195Z,5.95
2018-12-29T04:04:50.888Z,6.01
2018-12-29T04:06:00.887Z,5.97
2018-12-29T04:07:10.861Z,5.95
2018-12-29T04:08:20.802Z,5.98
2018-12-29T04:09:30.767Z,6.01
2018-12-29T04:10:40.726Z,5.99
2018-12-29T04:11:50.408Z,5.98
2018-12-29T04:13:00.348Z,5.9
2018-12-29T04:14:10.031Z,5.95
2018-12-29T04:15:19.963Z,5.94
2018-12-29T04:16:29.910Z,5.87
2018-12-29T04:17:39.860Z,5.95
2018-12-29T04:18:49.817Z,5.95
2018-12-29T04:19:58.994Z,5.99
2018-12-29T04:21:08.788Z,6.05
2018-12-29T04:22:18.502Z,5.98
2018-12-29T04:23:28.199Z,5.99
2018-12-29T04:24:38.131Z,5.95
2018-12-29T04:25:48.081Z,5.94
2018-12-29T04:26:57.774Z,5.94
2018-12-29T04:28:07.712Z,5.94
2018-12-29T04:29:17.384Z,5.97
2018-12-29T04:30:27.064Z,6.01
2018-12-29T04:31:36.496Z,5.97
2018-12-29T04:32:46.187Z,5.92
2018-12-29T04:33:56.119Z,5.95
2018-12-29T04:35:05.552Z,5.94
2018-12-29T04:36:15.501Z,5.99
2018-12-29T04:37:25.442Z,5.95
2018-12-29T04:38:35.379Z,5.97
2018-12-29T04:39:45.364Z,5.97
2018-12-29T04:40:55.056Z,5.91
2018-12-29T04:42:04.741Z,5.97
2018-12-29T04:43:14.683Z,5.91
2018-12-29T04:44:24.354Z,5.92
2018-12-29T04:45:34.283Z,5.95
2018-12-29T04:46:43.717Z,5.92
2018-12-29T04:47:53.749Z,5.95
2018-12-29T04:49:03.683Z,5.94
2018-12-29T04:50:13.642Z,5.91
2018-12-29T04:51:23.579Z,5.84
2018-12-29T04:52:33.517Z,5.95
2018-12-29T04:53:42.948Z,5.81
2018-12-29T04:54:52.890Z,5.84
2018-12-29T04:56:02.824Z,5.8
2018-12-29T04:57:12.760Z,5.9
2018-12-29T04:58:22.454Z,5.84
2018-12-29T04:59:31.895Z,5.9
2018-12-29T05:00:41.579Z,5.9
2018-12-29T05:01:51.012Z,5.84
2018-12-29T05:03:00.954Z,5.8
2018-12-29T05:04:10.904Z,5.87
2018-12-29T05:05:20.846Z,5.83
2018-12-29T05:06:30.781Z,5.84
2018-12-29T05:07:40.716Z,5.81
2018-12-29T05:08:50.653Z,5.84
2018-12-29T05:10:00.355Z,5.88
2018-12-29T05:11:10.283Z,5.87
2018-12-29T05:12:19.970Z,5.84
2018-12-29T05:13:29.673Z,5.9
2018-12-29T05:14:39.116Z,5.87
2018-12-29T05:15:48.799Z,5.94
2018-12-29T05:16:58.797Z,5.94
2018-12-29T05:18:08.483Z,5.94
2018-12-29T05:19:18.164Z,5.91
2018-12-29T05:20:27.851Z,5.9
2018-12-29T05:21:37.785Z,5.98
2018-12-29T05:22:47.731Z,5.95
2018-12-29T05:23:57.438Z,6.01
2018-12-29T05:25:07.428Z,5.92
2018-12-29T05:26:17.108Z,5.99
2018-12-29T05:27:27.045Z,5.92
2018-12-29T05:28:37.166Z,5.9
2018-12-29T05:29:47.080Z,5.98
2018-12-29T05:30:57.011Z,5.95
2018-12-29T05:32:06.970Z,5.97
2018-12-29T05:33:16.954Z,5.95
2018-12-29T05:34:26.647Z,5.99
2018-12-29T05:35:36.330Z,5.95
2018-12-29T05:36:46.283Z,5.94
2018-12-29T05:37:55.715Z,5.98
2018-12-29T05:39:05.651Z,5.99
2018-12-29T05:40:15.335Z,5.98
2018-12-29T05:41:25.026Z,5.88
2018-12-29T05:42:34.718Z,5.98
2018-12-29T05:43:44.407Z,5.99
2018-12-29T05:44:54.101Z,5.94
2018-12-29T05:46:04.045Z,5.94
2018-12-29T05:47:13.991Z,5.95
2018-12-29T05:48:23.682Z,5.98
2018-12-29T05:49:33.654Z,5.98
2018-12-29T05:50:43.606Z,5.94
2018-12-29T05:51:53.544Z,5.94
2018-12-29T05:53:03.230Z,5.95
2018-12-29T05:54:13.170Z,5.94
2018-12-29T05:55:22.864Z,5.94
2018-12-29T05:56:32.301Z,5.94
2018-12-29T05:57:42.244Z,5.92
2018-12-29T05:58:51.683Z,5.9
2018-12-29T06:00:01.112Z,5.81
2018-12-29T06:01:10.814Z,5.79
2018-12-29T06:02:20.256Z,5.91
2018-12-29T06:03:29.696Z,5.99
2018-12-29T06:04:39.403Z,5.94
2018-12-29T06:05:49.102Z,5.95
2018-12-29T06:06:59.097Z,5.97
2018-12-29T06:08:09.140Z,5.92
2018-12-29T06:09:19.077Z,5.83
2018-12-29T06:10:28.797Z,5.92
2018-12-29T06:11:38.506Z,5.95
2018-12-29T06:12:50.161Z,5.91
2018-12-29T06:14:00.099Z,5.84
2018-12-29T06:15:10.041Z,5.95
2018-12-29T06:16:19.477Z,5.91
2018-12-29T06:17:35.111Z,5.8
2018-12-29T06:18:44.793Z,5.9
2018-12-29T06:19:53.983Z,5.84
2018-12-29T06:21:03.919Z,5.84
2018-12-29T06:22:13.869Z,5.81
2018-12-29T06:23:23.547Z,5.92
2018-12-29T06:24:33.241Z,5.95
2018-12-29T06:25:43.220Z,5.84
2018-12-29T06:26:52.906Z,5.81
2018-12-29T06:28:02.587Z,5.92
2018-12-29T06:29:12.016Z,5.92
2018-12-29T06:30:21.947Z,5.84
2018-12-29T06:31:31.707Z,5.81
2018-12-29T06:32:41.392Z,5.84
2018-12-29T06:33:51.333Z,5.88
2018-12-29T06:35:00.846Z,5.92
2018-12-29T06:36:10.795Z,5.92
2018-12-29T06:37:20.728Z,5.81
2018-12-29T06:38:30.679Z,5.94
2018-12-29T06:39:40.638Z,5.91
2018-12-29T06:40:50.566Z,5.84
2018-12-29T06:42:00.515Z,5.81
2018-12-29T06:43:10.469Z,5.88
2018-12-29T06:44:20.167Z,5.84
2018-12-29T06:45:30.100Z,5.87
2018-12-29T06:46:39.937Z,5.91
2018-12-29T06:47:49.875Z,5.94
2018-12-29T06:48:59.569Z,5.84
2018-12-29T06:50:09.262Z,5.92
2018-12-29T06:51:18.945Z,5.9
2018-12-29T06:52:28.639Z,5.92
2018-12-29T06:53:38.583Z,5.84
2018-12-29T06:54:48.523Z,5.95
2018-12-29T06:55:58.455Z,5.9
2018-12-29T06:57:08.143Z,5.9
2018-12-29T06:58:17.825Z,5.88
2018-12-29T06:59:27.761Z,5.81
2018-12-29T07:00:37.453Z,5.84
2018-12-29T07:01:47.383Z,5.81
2018-12-29T07:02:57.318Z,5.88
2018-12-29T07:04:07.258Z,5.9
2018-12-29T07:05:17.210Z,5.83
2018-12-29T07:06:27.135Z,5.84
2018-12-29T07:07:36.579Z,5.87
2018-12-29T07:08:46.507Z,5.8
2018-12-29T07:09:56.695Z,5.84
2018-12-29T07:11:06.630Z,5.88
2018-12-29T07:12:16.322Z,5.83
2018-12-29T07:13:26.001Z,5.83
2018-12-29T07:14:35.929Z,5.8
2018-12-29T07:15:45.875Z,5.8
2018-12-29T07:16:55.973Z,5.79
2018-12-29T07:18:05.742Z,5.83
2018-12-29T07:19:15.698Z,5.74
2018-12-29T07:20:25.643Z,5.81
2018-12-29T07:21:35.579Z,5.77
2018-12-29T07:22:45.274Z,5.76
2018-12-29T07:23:55.218Z,5.87
2018-12-29T07:25:04.961Z,5.77
2018-12-29T07:26:14.650Z,5.76
2018-12-29T07:27:24.087Z,5.77
2018-12-29T07:28:34.091Z,5.8
2018-12-29T07:29:44.036Z,5.83
2018-12-29T07:30:53.713Z,5.79
2018-12-29T07:32:03.389Z,5.73
2018-12-29T07:33:13.347Z,5.8
2018-12-29T07:34:23.039Z,5.83
2018-12-29T07:35:32.817Z,5.8
2018-12-29T07:36:42.749Z,5.8
2018-12-29T07:37:51.937Z,5.9
2018-12-29T07:39:01.876Z,5.88
2018-12-29T07:40:11.809Z,5.83
2018-12-29T07:41:21.497Z,5.87
2018-12-29T07:42:31.448Z,5.87
2018-12-29T07:43:41.142Z,5.8
2018-12-29T07:44:51.085Z,5.84
2018-12-29T07:46:01.023Z,5.79
2018-12-29T07:47:10.962Z,5.81
2018-12-29T07:48:20.663Z,5.77
2018-12-29T07:49:30.357Z,5.9
2018-12-29T07:50:40.290Z,5.83
2018-12-29T07:51:49.991Z,5.8
2018-12-29T07:52:59.673Z,5.84
2018-12-29T07:54:09.612Z,5.83
2018-12-29T07:55:19.301Z,5.8
2018-12-29T07:56:28.991Z,5.8
2018-12-29T07:57:38.916Z,5.87
2018-12-29T07:58:48.862Z,5.9
2018-12-29T07:59:59.010Z,5.74
2018-12-29T08:01:09.061Z,5.79
2018-12-29T08:02:19.085Z,5.84
2018-12-29T08:03:29.036Z,5.76
2018-12-29T08:04:38.999Z,5.83
2018-12-29T08:05:48.952Z,5.83
2018-12-29T08:06:58.887Z,5.73
2018-12-29T08:08:08.579Z,5.84
2018-12-29T08:09:18.282Z,5.87
2018-12-29T08:10:28.231Z,5.88
2018-12-29T08:11:38.160Z,5.84
2018-12-29T08:12:48.100Z,5.88
2018-12-29T08:13:58.070Z,5.8
2018-12-29T08:15:08.027Z,5.9
2018-12-29T08:16:17.975Z,5.84
2018-12-29T08:17:27.673Z,5.92
2018-12-29T08:18:37.369Z,5.91
2018-12-29T08:19:46.808Z,5.94
2018-12-29T08:20:56.508Z,5.88
2018-12-29T08:22:06.444Z,5.84
2018-12-29T08:23:16.125Z,5.79
2018-12-29T08:24:25.820Z,5.83
2018-12-29T08:25:35.506Z,5.9
2018-12-29T08:26:45.207Z,5.87
2018-12-29T08:27:55.147Z,5.84
2018-12-29T08:29:04.584Z,5.87
2018-12-29T08:30:13.787Z,5.84
2018-12-29T08:31:23.738Z,5.81
2018-12-29T08:32:33.429Z,5.83
2018-12-29T08:33:43.195Z,5.95
2018-12-29T08:34:53.128Z,5.91
2018-12-29T08:36:03.074Z,5.97
2018-12-29T08:37:12.762Z,5.97
2018-12-29T08:38:22.529Z,6.06
2018-12-29T08:39:32.474Z,5.95
2018-12-29T08:40:42.177Z,6.05
2018-12-29T08:41:52.122Z,6.06
2018-12-29T08:43:02.075Z,5.94
2018-12-29T08:44:12.017Z,5.99
2018-12-29T08:45:21.724Z,6.01
2018-12-29T08:46:31.160Z,6.01
2018-12-29T08:47:41.098Z,5.97
2018-12-29T08:48:51.041Z,6.07
2018-12-29T08:50:00.759Z,5.99
2018-12-29T08:51:18.162Z,6.01
2018-12-29T08:52:28.118Z,5.98
2018-12-29T08:53:37.801Z,6.05
2018-12-29T08:54:47.748Z,5.97
2018-12-29T08:55:57.681Z,5.99
2018-12-29T08:57:07.375Z,5.95
2018-12-29T08:58:17.308Z,5.91
2018-12-29T08:59:27.256Z,5.97
2018-12-29T09:00:37.194Z,5.99
2018-12-29T09:01:47.144Z,5.97
2018-12-29T09:02:57.098Z,5.95
2018-12-29T09:04:07.048Z,5.92
2018-12-29T09:05:16.737Z,5.94
2018-12-29T09:06:26.684Z,6.02
2018-12-29T09:07:36.621Z,5.87
2018-12-29T09:08:47.044Z,5.95
2018-12-29T09:09:56.754Z,5.95
2018-12-29T09:11:06.717Z,5.92
2018-12-29T09:12:16.682Z,5.98
2018-12-29T09:13:26.634Z,5.94
2018-12-29T09:14:36.332Z,5.88
2018-12-29T09:15:46.036Z,5.95
2018-12-29T09:16:55.970Z,5.87
2018-12-29T09:18:05.901Z,5.95
2018-12-29T09:19:15.854Z,6.05
2018-12-29T09:20:32.415Z,6.06
2018-12-29T09:21:42.414Z,5.98
2018-12-29T09:22:52.370Z,5.99
2018-12-29T09:24:02.078Z,5.98
2018-12-29T09:25:11.764Z,6.05
2018-12-29T09:26:21.720Z,6.02
2018-12-29T09:27:31.428Z,6.05
2018-12-29T09:28:41.119Z,5.92
2018-12-29T09:29:50.813Z,5.91
2018-12-29T09:31:00.759Z,5.97
2018-12-29T09:32:10.686Z,5.99
2018-12-29T09:33:20.645Z,6.07
2018-12-29T09:34:30.374Z,5.98
2018-12-29T09:35:40.323Z,6.05
2018-12-29T09:36:50.284Z,6.06
2018-12-29T09:37:59.995Z,6.05
2018-12-29T09:39:09.934Z,5.97
2018-12-29T09:40:19.895Z,5.97
2018-12-29T09:41:29.847Z,6.01
2018-12-29T09:42:39.792Z,6.01
2018-12-29T09:43:49.723Z,6.07
2018-12-29T09:44:59.396Z,6.06
2018-12-29T09:46:09.242Z,6.06
2018-12-29T09:47:24.526Z,6.05
2018-12-29T09:48:34.467Z,5.99
2018-12-29T09:49:44.408Z,6.05
2018-12-29T09:50:54.112Z,5.98
2018-12-29T09:52:03.819Z,6.13
2018-12-29T09:53:13.790Z,6.05
2018-12-29T09:54:23.488Z,6.13
2018-12-29T09:55:33.438Z,5.97
2018-12-29T09:56:43.128Z,6.13
2018-12-29T09:57:53.077Z,6.07
2018-12-29T09:59:03.023Z,6.06
2018-12-29T10:00:12.700Z,6.05
2018-12-29T10:01:22.389Z,6.09
2018-12-29T10:02:32.100Z,6.09
2018-12-29T10:03:41.305Z,6.06
2018-12-29T10:04:50.993Z,6.06
2018-12-29T10:06:00.681Z,6.12
2018-12-29T10:07:10.382Z,6.02
2018-12-29T10:08:19.827Z,6.07
2018-12-29T10:09:29.845Z,6.12
2018-12-29T10:10:39.543Z,6.07
2018-12-29T10:11:49.481Z,6.06
2018-12-29T10:12:59.433Z,6.12
2018-12-29T10:14:08.886Z,6.09
2018-12-29T10:15:18.335Z,6.16
2018-12-29T10:16:28.265Z,6.02
2018-12-29T10:17:37.695Z,6.09
2018-12-29T10:18:47.621Z,6.15
2018-12-29T10:19:57.571Z,6.16
2018-12-29T10:21:07.524Z,6.15
2018-12-29T10:22:17.466Z,6.13
2018-12-29T10:23:27.401Z,6.16
2018-12-29T10:24:37.350Z,6.1
2018-12-29T10:25:47.289Z,6.16
2018-12-29T10:26:57.230Z,6.13
2018-12-29T10:28:07.187Z,6.17
2018-12-29T10:29:18.074Z,6.28
2018-12-29T10:30:27.774Z,6.22
2018-12-29T10:31:37.715Z,6.2
2018-12-29T10:32:47.653Z,6.26
2018-12-29T10:33:57.864Z,6.25
2018-12-29T10:35:07.808Z,6.32
2018-12-29T10:36:16.990Z,6.25
2018-12-29T10:37:26.672Z,6.31
2018-12-29T10:38:36.623Z,6.32
2018-12-29T10:39:46.071Z,6.29
2018-12-29T10:40:55.784Z,6.22
2018-12-29T10:42:05.475Z,6.26
2018-12-29T10:43:14.923Z,6.29
2018-12-29T10:44:24.865Z,6.36
2018-12-29T10:45:34.553Z,6.29
2018-12-29T10:46:44.251Z,6.34
2018-12-29T10:47:53.945Z,6.32
2018-12-29T10:49:03.729Z,6.39
2018-12-29T10:50:13.176Z,6.43
2018-12-29T10:51:22.877Z,6.44
2018-12-29T10:52:32.327Z,6.32
2018-12-29T10:53:42.028Z,6.39
2018-12-29T10:54:51.721Z,6.38
2018-12-29T10:56:01.662Z,6.32
2018-12-29T10:57:11.104Z,6.35
2018-12-29T10:58:21.048Z,6.35
2018-12-29T10:59:30.728Z,6.38
2018-12-29T11:00:40.693Z,6.35
2018-12-29T11:01:50.649Z,6.35
2018-12-29T11:03:00.603Z,6.41
2018-12-29T11:04:10.654Z,6.41
2018-12-29T11:05:20.854Z,6.47
2018-12-29T11:06:30.890Z,6.34
2018-12-29T11:07:40.325Z,6.31
2018-12-29T11:08:50.273Z,6.38
2018-12-29T11:10:00.255Z,6.36
2018-12-29T11:11:09.948Z,6.35
2018-12-29T11:12:19.884Z,6.32
2018-12-29T11:13:29.591Z,6.35
2018-12-29T11:14:39.538Z,6.36
2018-12-29T11:15:49.249Z,6.25
2018-12-29T11:16:58.948Z,6.19
2018-12-29T11:18:08.646Z,6.34
2018-12-29T11:19:18.598Z,6.32
2018-12-29T11:20:28.541Z,6.28
2018-12-29T11:21:38.489Z,6.44
2018-12-29T11:22:48.432Z,6.38
2018-12-29T11:23:58.383Z,6.39
2018-12-29T11:25:07.818Z,6.36
2018-12-29T11:26:17.267Z,6.36
2018-12-29T11:27:27.205Z,6.35
2018-12-29T11:28:36.897Z,6.41
2018-12-29T11:29:46.598Z,6.39
2018-12-29T11:30:56.549Z,6.36
2018-12-29T11:32:05.983Z,6.38
2018-12-29T11:33:15.939Z,6.39
2018-12-29T11:34:25.887Z,6.34
2018-12-29T11:35:35.586Z,6.38
2018-12-29T11:36:45.293Z,6.38
2018-12-29T11:37:55.256Z,6.39
2018-12-29T11:39:05.010Z,6.31
2018-12-29T11:40:14.739Z,6.39
2018-12-29T11:41:26.490Z,6.38
2018-12-29T11:42:36.197Z,6.34
2018-12-29T11:43:45.938Z,6.39
2018-12-29T11:44:55.623Z,6.34
2018-12-29T11:46:05.563Z,6.41
2018-12-29T11:47:15.251Z,6.35
2018-12-29T11:48:24.951Z,6.47
2018-12-29T11:49:34.689Z,6.49
2018-12-29T11:50:44.190Z,6.43
2018-12-29T11:51:53.921Z,6.57
2018-12-29T11:53:03.904Z,6.54
2018-12-29T11:54:13.909Z,6.54
2018-12-29T11:55:23.147Z,6.56
2018-12-29T11:56:32.895Z,6.64
2018-12-29T11:57:43.103Z,6.64
2018-12-29T11:58:53.463Z,6.6
2018-12-29T12:00:04.530Z,6.72
2018-12-29T12:01:17.232Z,6.64
2018-12-29T12:02:29.270Z,6.72
2018-12-29T12:03:39.284Z,6.74
2018-12-29T12:04:49.037Z,6.74
2018-12-29T12:05:58.515Z,6.67
2018-12-29T12:07:08.254Z,6.71
2018-12-29T12:08:18.000Z,6.72
2018-12-29T12:09:28.000Z,6.67
2018-12-29T12:10:37.833Z,6.7
2018-12-29T12:11:47.574Z,6.74
2018-12-29T12:12:57.559Z,6.78
2018-12-29T12:14:07.306Z,6.8
2018-12-29T12:15:17.342Z,6.85
2018-12-29T12:16:27.100Z,6.78
2018-12-29T12:17:37.144Z,6.78
2018-12-29T12:18:46.907Z,6.8
2018-12-29T12:19:56.682Z,6.83
2018-12-29T12:21:06.438Z,6.83
2018-12-29T12:22:16.443Z,6.77
2018-12-29T12:23:26.261Z,6.87
2018-12-29T12:24:36.404Z,6.89
2018-12-29T12:25:46.434Z,6.9
2018-12-29T12:26:56.208Z,7
2018-12-29T12:28:06.215Z,6.92
2018-12-29T12:29:16.762Z,6.9
2018-12-29T12:30:26.887Z,6.9
2018-12-29T12:31:36.652Z,6.93
2018-12-29T12:32:46.671Z,6.9
2018-12-29T12:33:56.712Z,6.96
2018-12-29T12:35:07.225Z,6.89
2018-12-29T12:36:17.003Z,6.97
2018-12-29T12:37:27.533Z,6.89
2018-12-29T12:38:38.131Z,6.87
2018-12-29T12:39:48.127Z,6.93
2018-12-29T12:40:58.407Z,6.87
2018-12-29T12:42:08.459Z,6.89
2018-12-29T12:43:19.044Z,6.86
2018-12-29T12:44:29.926Z,6.9
2018-12-29T12:45:39.949Z,6.86
2018-12-29T12:46:50.338Z,6.9
2018-12-29T12:48:07.643Z,6.89
2018-12-29T12:49:17.406Z,6.96
2018-12-29T12:50:27.442Z,6.9
2018-12-29T12:51:36.706Z,6.9
2018-12-29T12:52:47.266Z,6.96
2018-12-29T12:53:57.274Z,6.89
2018-12-29T12:55:07.296Z,6.93
2018-12-29T12:56:17.281Z,6.97
2018-12-29T12:57:27.985Z,6.96
2018-12-29T12:58:39.272Z,7.01
2018-12-29T12:59:50.276Z,6.96
2018-12-29T13:01:01.339Z,6.96
2018-12-29T13:02:11.876Z,6.93
2018-12-29T13:03:22.822Z,6.95
2018-12-29T13:04:33.299Z,6.95
2018-12-29T13:05:43.194Z,7.03
2018-12-29T13:06:53.198Z,6.97
2018-12-29T13:08:03.255Z,7
2018-12-29T13:09:13.238Z,7
2018-12-29T13:10:23.261Z,6.92
2018-12-29T13:11:33.276Z,6.97
2018-12-29T13:12:43.036Z,6.96
2018-12-29T13:13:53.097Z,6.95
2018-12-29T13:15:03.103Z,6.96
2018-12-29T13:16:13.114Z,6.93
2018-12-29T13:17:22.878Z,6.95
2018-12-29T13:18:32.884Z,6.95
2018-12-29T13:19:42.894Z,7
2018-12-29T13:20:52.903Z,6.92
2018-12-29T13:22:02.898Z,6.93
2018-12-29T13:23:12.434Z,7
2018-12-29T13:24:22.450Z,6.97
2018-12-29T13:25:32.435Z,7.03
2018-12-29T13:26:41.901Z,6.95
2018-12-29T13:27:51.891Z,6.96
2018-12-29T13:29:01.912Z,7.01
2018-12-29T13:30:11.903Z,7.04
2018-12-29T13:31:21.663Z,7.05
2018-12-29T13:32:31.660Z,7.04
2018-12-29T13:33:41.778Z,7.07
2018-12-29T13:34:52.447Z,7.04
2018-12-29T13:36:03.542Z,7.03
2018-12-29T13:37:13.584Z,7.15
2018-12-29T13:38:23.085Z,7.18
2018-12-29T13:39:33.086Z,7.13
2018-12-29T13:40:44.610Z,7.13
2018-12-29T13:41:54.470Z,7.14
2018-12-29T13:43:04.463Z,7.28
2018-12-29T13:44:14.201Z,7.26
2018-12-29T13:45:24.219Z,7.15
2018-12-29T13:46:34.239Z,7.28
2018-12-29T13:47:44.233Z,7.21
2018-12-29T13:48:54.250Z,7.28
2018-12-29T13:50:04.233Z,7.21
2018-12-29T13:51:14.234Z,7.19
2018-12-29T13:52:23.978Z,7.19
2018-12-29T13:53:33.466Z,7.18
2018-12-29T13:54:43.247Z,7.11
2018-12-29T13:55:52.998Z,7.11
2018-12-29T13:57:02.989Z,7.25
2018-12-29T13:58:12.725Z,7.13
2018-12-29T13:59:22.477Z,7.23
2018-12-29T14:00:32.251Z,7.19
2018-12-29T14:01:42.241Z,7.13
2018-12-29T14:02:52.266Z,7.18
2018-12-29T14:04:02.650Z,7.14
2018-12-29T14:05:13.534Z,7.18
2018-12-29T14:06:24.323Z,7.26
2018-12-29T14:07:34.149Z,7.23
2018-12-29T14:08:43.873Z,7.33
2018-12-29T14:09:53.391Z,7.15
2018-12-29T14:11:03.380Z,7.36
2018-12-29T14:12:12.875Z,7.26
2018-12-29T14:13:22.350Z,7.33
2018-12-29T14:14:32.351Z,7.37
2018-12-29T14:15:42.339Z,7.21
2018-12-29T14:16:52.094Z,7.28
2018-12-29T14:18:01.573Z,7.29
2018-12-29T14:19:11.333Z,7.36
2018-12-29T14:20:21.112Z,7.29
2018-12-29T14:21:30.403Z,7.26
2018-12-29T14:22:40.163Z,7.33
2018-12-29T14:23:50.159Z,7.37
2018-12-29T14:25:00.239Z,7.33
2018-12-29T14:26:09.746Z,7.37
2018-12-29T14:27:19.487Z,7.28
2018-12-29T14:28:29.500Z,7.25
2018-12-29T14:29:39.488Z,7.31
2018-12-29T14:30:49.004Z,7.29
2018-12-29T14:31:59.010Z,7.31
2018-12-29T14:33:08.995Z,7.28
2018-12-29T14:34:19.203Z,7.29
2018-12-29T14:35:29.349Z,7.36
2018-12-29T14:36:39.705Z,7.31
2018-12-29T14:37:50.579Z,7.29
2018-12-29T14:39:00.723Z,7.25
2018-12-29T14:40:10.760Z,7.22
2018-12-29T14:41:20.774Z,7.33
2018-12-29T14:42:30.803Z,7.33
2018-12-29T14:43:40.549Z,7.28
2018-12-29T14:44:50.570Z,7.32
2018-12-29T14:46:00.322Z,7.22
2018-12-29T14:47:10.357Z,7.28
2018-12-29T14:48:20.360Z,7.36
2018-12-29T14:49:30.146Z,7.31
2018-12-29T14:50:39.892Z,7.31
2018-12-29T14:51:49.635Z,7.28
2018-12-29T14:52:59.663Z,7.26
2018-12-29T14:54:09.675Z,7.28
2018-12-29T14:55:19.671Z,7.32
2018-12-29T14:56:29.764Z,7.26
2018-12-29T14:57:39.765Z,7.32
2018-12-29T14:58:49.750Z,7.33
2018-12-29T14:59:59.761Z,7.31
2018-12-29T15:01:09.547Z,7.31
2018-12-29T15:02:19.573Z,7.25
2018-12-29T15:03:29.565Z,7.31
2018-12-29T15:04:39.557Z,7.37
2018-12-29T15:05:49.795Z,7.28
2018-12-29T15:07:00.359Z,7.22
2018-12-29T15:08:12.048Z,7.37
2018-12-29T15:09:22.151Z,7.37
2018-12-29T15:10:31.917Z,7.28
2018-12-29T15:11:42.257Z,7.31
2018-12-29T15:12:51.795Z,7.31
2018-12-29T15:14:01.841Z,7.31
2018-12-29T15:15:12.508Z,7.28
2018-12-29T15:16:22.542Z,7.33
2018-12-29T15:17:32.077Z,7.36
2018-12-29T15:18:48.958Z,7.25
2018-12-29T15:19:59.360Z,7.31
2018-12-29T15:21:09.414Z,7.25
2018-12-29T15:22:19.877Z,7.31
2018-12-29T15:23:30.499Z,7.28
2018-12-29T15:24:40.860Z,7.31
2018-12-29T15:25:50.706Z,7.29
2018-12-29T15:27:00.242Z,7.18
2018-12-29T15:28:10.644Z,7.31
2018-12-29T15:29:21.605Z,7.33
2018-12-29T15:30:31.674Z,7.31
2018-12-29T15:31:41.436Z,7.33
2018-12-29T15:32:50.687Z,7.25
2018-12-29T15:34:01.037Z,7.22